Time;durP1;ratioP1;P1;durP2;ratioP2;P2;SDS_P1;SDS_P2;PMS_P1;PMS_P2;Temp;Humidity;BMP_temperature;BMP_pressure;BME280_temperature;BME280_humidity;BME280_pressure;Samples;Min_cycle;Max_cycle;Signal;HPM_P1;HPM_P2
2021/10/31 00:01:25;;;;;;;30.67;25.45;;;13.20;81.40;;;;;;5034478;28;20029;-62
2021/10/31 00:03:51;;;;;;;34.30;25.60;;;13.20;81.30;;;;;;5033626;28;20033;-62
2021/10/31 00:06:17;;;;;;;29.52;25.10;;;13.20;80.20;;;;;;5029445;28;20036;-62
2021/10/31 00:08:43;;;;;;;31.00;24.60;;;13.20;81.10;;;;;;5037435;28;20471;-62
2021/10/31 00:11:08;;;;;;;31.60;24.08;;;13.10;81.60;;;;;;5032893;28;20392;-62
2021/10/31 00:13:35;;;;;;;29.05;24.35;;;13.10;81.30;;;;;;5036162;28;20041;-62
2021/10/31 00:16:01;;;;;;;30.08;25.80;;;13.10;80.90;;;;;;5047397;28;20072;-62
2021/10/31 00:18:27;;;;;;;31.92;25.08;;;13.20;81.90;;;;;;5034651;28;20079;-62
2021/10/31 00:20:53;;;;;;;34.63;24.77;;;13.30;81.40;;;;;;5032667;28;20026;-62
2021/10/31 00:23:18;;;;;;;33.25;24.52;;;13.30;80.80;;;;;;5034257;28;20037;-62
2021/10/31 00:25:44;;;;;;;33.97;25.60;;;13.20;80.40;;;;;;5034590;28;20515;-62
2021/10/31 00:28:09;;;;;;;27.05;23.17;;;13.10;80.70;;;;;;5035426;28;20171;-62
2021/10/31 00:30:35;;;;;;;29.75;24.27;;;13.00;81.90;;;;;;5034125;28;20026;-62
2021/10/31 00:33:04;;;;;;;31.33;24.65;;;12.90;82.60;;;;;;5033284;28;20116;-62
2021/10/31 00:35:29;;;;;;;32.22;25.73;;;12.90;82.50;;;;;;5033981;28;20025;-62
2021/10/31 00:37:55;;;;;;;31.42;25.10;;;12.90;82.30;;;;;;5036512;28;20128;-62
2021/10/31 00:40:21;;;;;;;32.15;26.27;;;12.80;82.80;;;;;;5034383;28;20029;-62
2021/10/31 00:42:47;;;;;;;28.60;24.30;;;13.00;83.00;;;;;;5031739;28;20048;-62
2021/10/31 00:45:13;;;;;;;35.42;27.10;;;12.90;82.30;;;;;;5045767;28;20060;-62
2021/10/31 00:47:39;;;;;;;30.35;25.35;;;12.90;83.00;;;;;;5037233;28;20064;-62
2021/10/31 00:50:05;;;;;;;30.83;24.73;;;12.90;82.80;;;;;;5033606;28;20487;-62
2021/10/31 00:52:32;;;;;;;32.88;28.02;;;12.80;82.70;;;;;;5042333;28;20025;-62
2021/10/31 00:54:58;;;;;;;34.17;24.77;;;13.00;82.50;;;;;;5054216;28;20108;-62
2021/10/31 00:57:25;;;;;;;31.70;26.27;;;12.80;82.60;;;;;;5046719;28;20482;-62
2021/10/31 00:59:51;;;;;;;32.17;27.00;;;12.80;83.60;;;;;;5045546;28;20049;-62
2021/10/31 01:02:18;;;;;;;33.50;27.60;;;13.00;82.40;;;;;;5040804;28;20033;-62
2021/10/31 01:04:47;;;;;;;36.92;29.25;;;12.90;81.70;;;;;;5046468;28;20486;-62
2021/10/31 01:07:32;;;;;;;41.97;30.20;;;12.90;82.40;;;;;;5032520;28;20565;-62
2021/10/31 01:10:10;;;;;;;35.35;28.63;;;12.90;83.50;;;;;;5034549;28;20105;-62
2021/10/31 01:16:06;;;;;;;36.45;30.48;;;12.90;84.00;;;;;;5030913;28;20023;-62
2021/10/31 01:18:50;;;;;;;37.67;30.00;;;12.80;83.50;;;;;;5029363;28;20352;-62
2021/10/31 01:21:40;;;;;;;37.53;30.02;;;13.00;83.90;;;;;;5033809;28;20026;-62
2021/10/31 01:24:46;;;;;;;38.15;29.85;;;13.10;82.80;;;;;;5026179;28;20404;-62
2021/10/31 01:27:17;;;;;;;36.28;29.50;;;13.10;81.70;;;;;;5028693;28;20100;-62
2021/10/31 01:30:13;;;;;;;36.67;28.77;;;13.00;81.90;;;;;;5032735;28;20148;-62
2021/10/31 01:32:58;;;;;;;38.83;29.83;;;12.90;83.60;;;;;;5032575;28;20060;-62
2021/10/31 01:35:41;;;;;;;35.72;28.17;;;13.00;82.50;;;;;;5026659;28;20084;-62
2021/10/31 01:38:49;;;;;;;38.35;29.00;;;13.00;82.00;;;;;;5026060;28;20454;-62
2021/10/31 01:41:42;;;;;;;37.25;29.67;;;13.10;83.20;;;;;;5029888;28;20027;-62
2021/10/31 01:44:22;;;;;;;38.75;30.63;;;13.20;81.90;;;;;;5030040;28;20037;-62
2021/10/31 01:47:06;;;;;;;39.28;29.98;;;13.00;82.50;;;;;;5032235;28;20418;-62
2021/10/31 01:49:41;;;;;;;35.58;29.27;;;13.00;83.00;;;;;;5033014;28;20033;-62
2021/10/31 01:52:21;;;;;;;38.35;31.33;;;13.00;83.80;;;;;;5030757;28;20120;-62
2021/10/31 01:54:54;;;;;;;41.92;32.83;;;13.00;82.60;;;;;;5031632;28;20443;-62
2021/10/31 01:57:22;;;;;;;39.85;32.58;;;13.10;82.80;;;;;;5029437;28;20491;-62
2021/10/31 01:59:53;;;;;;;41.22;31.88;;;13.00;82.70;;;;;;5031680;28;20064;-62
2021/10/31 02:02:20;;;;;;;40.78;32.35;;;12.80;82.90;;;;;;5034806;28;20429;-62
2021/10/31 02:04:49;;;;;;;43.72;33.50;;;12.90;83.60;;;;;;5035421;28;20033;-62
2021/10/31 02:07:19;;;;;;;44.20;33.50;;;12.90;83.00;;;;;;5033564;28;20463;-62
2021/10/31 02:09:46;;;;;;;45.47;33.72;;;13.00;82.50;;;;;;5033736;28;20105;-62
2021/10/31 02:12:16;;;;;;;45.17;36.63;;;13.00;82.40;;;;;;5032131;28;20029;-62
2021/10/31 02:14:43;;;;;;;47.63;35.10;;;13.00;82.50;;;;;;5032488;28;20495;-62
2021/10/31 02:17:10;;;;;;;44.25;33.70;;;12.80;83.10;;;;;;5023462;28;20036;-62
2021/10/31 02:19:41;;;;;;;43.38;33.38;;;12.90;83.70;;;;;;5025400;28;20025;-62
2021/10/31 02:22:10;;;;;;;44.67;34.22;;;12.90;82.90;;;;;;5040871;28;20030;-62
2021/10/31 02:24:36;;;;;;;41.75;32.88;;;13.00;82.50;;;;;;5033057;28;20033;-62
2021/10/31 02:27:20;;;;;;;42.83;33.22;;;13.10;81.90;;;;;;5031097;28;20029;-62
2021/10/31 02:29:51;;;;;;;41.40;32.25;;;13.20;81.30;;;;;;5032613;28;20052;-62
2021/10/31 02:32:19;;;;;;;42.25;31.90;;;13.20;81.20;;;;;;5032305;28;20032;-62
2021/10/31 02:34:45;;;;;;;44.00;32.53;;;13.10;81.10;;;;;;5031869;28;20037;-62
2021/10/31 02:37:10;;;;;;;37.58;30.52;;;13.20;80.90;;;;;;5030822;28;20022;-62
2021/10/31 02:39:37;;;;;;;41.13;33.28;;;13.10;80.70;;;;;;5032469;28;20125;-62
2021/10/31 02:42:03;;;;;;;37.00;31.58;;;13.10;80.40;;;;;;5031082;28;20510;-62
2021/10/31 02:44:30;;;;;;;38.22;32.45;;;13.20;80.40;;;;;;5037455;28;20026;-62
2021/10/31 02:46:56;;;;;;;37.40;30.63;;;13.10;80.60;;;;;;5013268;28;20105;-62
2021/10/31 02:49:23;;;;;;;37.50;30.63;;;13.10;80.70;;;;;;5039169;28;20057;-62
2021/10/31 02:51:48;;;;;;;33.90;28.27;;;13.00;80.90;;;;;;5032574;28;20559;-62
2021/10/31 02:54:33;;;;;;;36.97;29.15;;;12.80;79.70;;;;;;5031622;28;20112;-62
2021/10/31 02:57:19;;;;;;;34.30;27.30;;;12.70;81.60;;;;;;5031493;28;20029;-62
2021/10/31 02:59:52;;;;;;;33.25;27.00;;;12.80;80.20;;;;;;5018093;28;20026;-61
2021/10/31 03:02:18;;;;;;;35.78;26.35;;;12.70;82.20;;;;;;5017833;28;20042;-62
2021/10/31 03:04:45;;;;;;;36.13;28.17;;;12.70;81.10;;;;;;5036520;28;20461;-62
2021/10/31 03:07:15;;;;;;;30.88;25.30;;;12.90;80.60;;;;;;5036675;28;20483;-62
2021/10/31 03:09:45;;;;;;;33.35;26.75;;;13.00;79.50;;;;;;5032020;28;20065;-62
2021/10/31 03:12:11;;;;;;;34.17;27.48;;;12.90;79.70;;;;;;5032515;28;20380;-61
2021/10/31 03:14:37;;;;;;;38.00;27.77;;;12.90;80.00;;;;;;5040283;28;20087;-62
2021/10/31 03:17:03;;;;;;;32.85;26.60;;;12.90;80.00;;;;;;5031585;28;20038;-62
2021/10/31 03:19:29;;;;;;;31.23;25.10;;;13.00;79.80;;;;;;5033808;28;20437;-62
2021/10/31 03:21:55;;;;;;;29.30;23.08;;;12.90;78.80;;;;;;5035328;28;20088;-62
2021/10/31 03:24:29;;;;;;;27.98;23.48;;;12.90;78.10;;;;;;5033804;28;20030;-62
2021/10/31 03:26:55;;;;;;;;;;;12.90;78.50;;;;;;5036427;28;20387;-62
2021/10/31 03:29:22;;;;;;;29.05;21.70;;;12.90;77.40;;;;;;5034604;28;19912;-62
2021/10/31 03:31:48;;;;;;;27.58;23.05;;;12.90;78.70;;;;;;5035742;28;20022;-62
2021/10/31 03:34:14;;;;;;;27.10;22.45;;;13.00;78.20;;;;;;5032188;28;20120;-62
2021/10/31 03:36:39;;;;;;;25.48;20.98;;;13.00;76.90;;;;;;5035894;28;20411;-62
2021/10/31 03:39:07;;;;;;;25.88;20.08;;;13.10;76.80;;;;;;5049395;28;20092;-62
2021/10/31 03:41:32;;;;;;;25.10;20.27;;;13.00;74.70;;;;;;5035216;28;20569;-62
2021/10/31 03:43:58;;;;;;;23.27;19.17;;;12.90;76.10;;;;;;5033200;28;20021;-62
2021/10/31 03:46:24;;;;;;;22.42;18.38;;;12.80;76.40;;;;;;5035558;28;20029;-62
2021/10/31 03:52:12;;;;;;;21.42;19.13;;;12.80;73.20;;;;;;5019568;28;20507;-62
2021/10/31 03:54:38;;;;;;;22.98;18.10;;;12.90;74.70;;;;;;5032342;28;20018;-62
2021/10/31 03:57:05;;;;;;;21.17;18.15;;;13.00;74.10;;;;;;5032495;28;20087;-62
2021/10/31 03:59:30;;;;;;;22.65;18.75;;;13.10;73.70;;;;;;5017840;28;20030;-62
2021/10/31 04:01:56;;;;;;;26.80;19.48;;;13.00;75.00;;;;;;5032031;28;20033;-62
2021/10/31 04:04:22;;;;;;;22.90;19.80;;;13.10;74.70;;;;;;5035930;28;20021;-62
2021/10/31 04:06:47;;;;;;;22.48;18.35;;;13.00;73.00;;;;;;5019089;28;20026;-62
2021/10/31 04:09:13;;;;;;;23.23;20.33;;;13.00;74.50;;;;;;5030542;28;20025;-62
2021/10/31 04:11:38;;;;;;;23.00;19.65;;;13.20;73.80;;;;;;5019399;28;20399;-62
2021/10/31 04:14:04;;;;;;;23.05;19.42;;;13.10;73.20;;;;;;5042556;28;20029;-62
2021/10/31 04:16:30;;;;;;;22.30;18.83;;;13.10;73.70;;;;;;5035911;28;20025;-62
2021/10/31 04:18:55;;;;;;;21.30;18.58;;;13.10;72.90;;;;;;5019116;28;20108;-62
2021/10/31 04:21:21;;;;;;;23.15;19.08;;;13.20;72.10;;;;;;5026986;28;20435;-62
2021/10/31 04:23:47;;;;;;;25.80;19.48;;;13.10;72.60;;;;;;5035842;28;20419;-62
2021/10/31 04:26:13;;;;;;;23.88;19.83;;;13.10;72.20;;;;;;5032473;28;20025;-62
2021/10/31 04:28:38;;;;;;;23.10;20.10;;;13.10;72.80;;;;;;5033309;28;20033;-62
2021/10/31 04:31:04;;;;;;;25.30;20.05;;;13.10;72.70;;;;;;5033084;28;20052;-62
2021/10/31 04:33:30;;;;;;;24.77;20.13;;;13.10;72.80;;;;;;5032521;28;20049;-62
2021/10/31 04:35:55;;;;;;;24.38;20.90;;;13.20;72.50;;;;;;5029600;28;20033;-62
2021/10/31 04:38:24;;;;;;;23.65;20.98;;;13.20;71.80;;;;;;5021220;28;20038;-62
2021/10/31 04:40:51;;;;;;;29.60;22.33;;;13.20;73.00;;;;;;5034038;28;20486;-62
2021/10/31 04:43:16;;;;;;;31.23;22.60;;;13.10;72.90;;;;;;5031476;28;20034;-62
2021/10/31 04:45:44;;;;;;;30.33;23.45;;;13.10;73.50;;;;;;5029552;28;20034;-62
2021/10/31 04:48:12;;;;;;;27.98;22.45;;;13.10;73.30;;;;;;5013905;28;20034;-62
2021/10/31 04:50:38;;;;;;;26.63;21.60;;;13.20;73.60;;;;;;5032575;28;20486;-62
2021/10/31 04:53:06;;;;;;;26.13;21.88;;;13.10;73.30;;;;;;5033824;28;20017;-62
2021/10/31 04:55:33;;;;;;;27.35;22.80;;;13.20;73.30;;;;;;5051707;28;20029;-62
2021/10/31 04:57:59;;;;;;;27.45;23.00;;;12.90;74.40;;;;;;5052575;28;20033;-62
2021/10/31 05:00:25;;;;;;;30.65;23.08;;;12.90;75.30;;;;;;5031968;28;20034;-62
2021/10/31 05:02:51;;;;;;;27.33;21.75;;;12.90;75.00;;;;;;5016349;28;20491;-62
2021/10/31 05:05:18;;;;;;;24.65;22.00;;;12.90;75.90;;;;;;5034388;28;20044;-62
2021/10/31 05:07:44;;;;;;;25.95;22.23;;;12.90;75.70;;;;;;5038512;28;20474;-62
2021/10/31 05:10:10;;;;;;;33.03;23.85;;;12.90;75.90;;;;;;5037222;28;20028;-62
2021/10/31 05:12:36;;;;;;;28.45;24.42;;;12.90;76.30;;;;;;5015991;28;20041;-62
2021/10/31 05:15:02;;;;;;;29.80;24.52;;;12.90;76.20;;;;;;5032505;28;20132;-61
2021/10/31 05:17:28;;;;;;;29.00;23.98;;;12.90;75.80;;;;;;5033628;28;20024;-62
2021/10/31 05:20:38;;;;;;;30.90;22.63;;;12.80;76.50;;;;;;5032214;28;20124;-62
2021/10/31 05:23:03;;;;;;;30.27;24.58;;;12.80;76.80;;;;;;5038300;28;20045;-62
2021/10/31 05:25:29;;;;;;;24.23;21.55;;;12.80;77.50;;;;;;5015872;28;20113;-62
2021/10/31 05:27:55;;;;;;;29.08;22.98;;;12.70;77.20;;;;;;5031598;28;20045;-62
2021/10/31 05:30:20;;;;;;;26.33;22.08;;;12.90;77.20;;;;;;5032805;28;20053;-62
2021/10/31 05:32:47;;;;;;;23.02;20.30;;;12.90;76.70;;;;;;5033184;28;20052;-62
2021/10/31 05:35:13;;;;;;;25.75;21.63;;;12.80;76.50;;;;;;5047890;28;20036;-62
2021/10/31 05:37:44;;;;;;;27.05;22.40;;;12.60;78.00;;;;;;5034269;28;20037;-62
2021/10/31 05:40:12;;;;;;;24.58;20.40;;;12.70;78.10;;;;;;5032411;28;20486;-62
2021/10/31 05:42:39;;;;;;;22.70;19.88;;;12.60;77.60;;;;;;5032892;28;20043;-62
2021/10/31 05:45:07;;;;;;;24.10;20.13;;;12.70;77.30;;;;;;5025296;28;20030;-62
2021/10/31 05:47:37;;;;;;;24.60;21.50;;;12.80;76.50;;;;;;5021100;28;20511;-62
2021/10/31 05:50:05;;;;;;;24.48;20.67;;;12.80;77.60;;;;;;5016618;28;20022;-62
2021/10/31 05:52:31;;;;;;;24.30;20.77;;;12.60;78.00;;;;;;5029055;28;20033;-62
2021/10/31 05:54:59;;;;;;;24.83;20.20;;;12.70;78.10;;;;;;5021469;28;20026;-62
2021/10/31 05:57:24;;;;;;;25.83;20.98;;;12.60;78.10;;;;;;5020688;28;20033;-62
2021/10/31 05:59:52;;;;;;;23.70;21.08;;;12.60;78.20;;;;;;5032297;28;20392;-62
2021/10/31 06:02:17;;;;;;;26.02;21.42;;;12.70;77.70;;;;;;5031115;28;20068;-63
2021/10/31 06:04:45;;;;;;;24.25;20.35;;;12.70;76.80;;;;;;5032331;28;20156;-62
2021/10/31 06:07:11;;;;;;;25.45;20.33;;;12.70;77.50;;;;;;5030970;28;20042;-62
2021/10/31 06:09:36;;;;;;;28.75;20.20;;;12.70;77.50;;;;;;5026033;28;20033;-62
2021/10/31 06:12:07;;;;;;;23.20;20.52;;;12.70;77.80;;;;;;5030580;28;20028;-62
2021/10/31 06:14:34;;;;;;;24.80;19.40;;;12.70;77.60;;;;;;5030323;28;20189;-62
2021/10/31 06:17:01;;;;;;;23.52;20.27;;;12.50;78.50;;;;;;5031372;28;20094;-62
2021/10/31 06:19:27;;;;;;;23.88;19.48;;;12.60;78.60;;;;;;5031378;28;20026;-62
2021/10/31 06:21:52;;;;;;;23.90;20.02;;;12.60;77.90;;;;;;5032628;28;20407;-62
2021/10/31 06:24:18;;;;;;;23.65;19.38;;;12.50;77.80;;;;;;5031321;28;20101;-62
2021/10/31 06:26:44;;;;;;;24.05;18.58;;;12.40;79.10;;;;;;5032539;28;20021;-62
2021/10/31 06:29:12;;;;;;;24.92;18.52;;;12.20;80.50;;;;;;5045415;28;20056;-62
2021/10/31 06:31:38;;;;;;;22.58;19.27;;;12.30;80.60;;;;;;5027868;28;20080;-62
2021/10/31 06:34:28;;;;;;;21.05;18.30;;;12.50;79.80;;;;;;5027167;28;20038;-62
2021/10/31 06:36:54;;;;;;;18.65;16.60;;;12.50;79.30;;;;;;5026340;28;20340;-62
2021/10/31 06:39:19;;;;;;;19.23;17.20;;;12.50;79.40;;;;;;5028439;28;20049;-62
2021/10/31 06:45:08;;;;;;;20.13;16.75;;;12.50;77.90;;;;;;5022913;28;20048;-62
2021/10/31 06:47:35;;;;;;;20.10;16.88;;;12.40;78.80;;;;;;5031206;28;20483;-62
2021/10/31 06:50:02;;;;;;;19.58;16.55;;;12.30;80.20;;;;;;5034593;28;20022;-62
2021/10/31 06:52:28;;;;;;;17.70;15.60;;;12.50;78.90;;;;;;5036382;28;20033;-62
2021/10/31 06:54:54;;;;;;;20.95;17.30;;;12.50;78.20;;;;;;5035266;28;20424;-62
2021/10/31 06:57:20;;;;;;;19.33;17.05;;;12.60;78.00;;;;;;5036490;28;20107;-61
2021/10/31 06:59:45;;;;;;;21.55;16.90;;;12.70;77.70;;;;;;5031947;28;20022;-62
2021/10/31 07:02:13;;;;;;;20.85;18.35;;;12.80;76.60;;;;;;5036137;28;20033;-62
2021/10/31 07:04:38;;;;;;;19.70;17.63;;;12.80;76.60;;;;;;5042293;28;20025;-63
2021/10/31 07:07:04;;;;;;;18.80;16.20;;;12.70;77.00;;;;;;5056059;28;20039;-62
2021/10/31 07:09:30;;;;;;;19.67;17.05;;;12.60;77.70;;;;;;5037166;28;20356;-62
2021/10/31 07:11:55;;;;;;;21.13;16.77;;;12.70;77.10;;;;;;5034185;28;20442;-62
2021/10/31 07:14:21;;;;;;;21.52;17.67;;;12.80;77.20;;;;;;5034812;28;20538;-62
2021/10/31 07:16:47;;;;;;;18.27;16.38;;;12.70;77.50;;;;;;5034473;28;20467;-62
2021/10/31 07:19:13;;;;;;;21.77;18.30;;;12.80;75.80;;;;;;5034026;28;20059;-62
2021/10/31 07:21:38;;;;;;;21.30;17.75;;;12.70;77.50;;;;;;5035548;28;20038;-63
2021/10/31 07:24:05;;;;;;;19.55;17.20;;;12.90;76.30;;;;;;5032450;28;20029;-63
2021/10/31 07:26:32;;;;;;;22.00;18.25;;;12.90;76.10;;;;;;5032425;28;20025;-63
2021/10/31 07:28:58;;;;;;;22.95;17.50;;;12.90;75.70;;;;;;5034105;28;20041;-62
2021/10/31 07:31:25;;;;;;;20.00;17.83;;;12.70;77.10;;;;;;5035308;28;20025;-63
2021/10/31 07:33:52;;;;;;;22.00;18.58;;;12.90;76.10;;;;;;5032528;28;20120;-63
2021/10/31 07:36:18;;;;;;;22.15;18.73;;;13.10;75.50;;;;;;5034692;28;20026;-63
2021/10/31 07:38:44;;;;;;;19.42;17.17;;;13.20;74.70;;;;;;5032036;28;20048;-63
2021/10/31 07:41:10;;;;;;;18.17;15.98;;;13.20;74.00;;;;;;5030808;28;20029;-63
2021/10/31 07:43:37;;;;;;;19.10;16.13;;;13.00;73.60;;;;;;5017185;28;20065;-62
2021/10/31 07:46:02;;;;;;;18.50;15.98;;;12.90;74.70;;;;;;5051228;28;20021;-63
2021/10/31 07:48:28;;;;;;;17.60;15.73;;;13.00;74.60;;;;;;5052360;28;20043;-62
2021/10/31 07:50:54;;;;;;;18.15;16.13;;;13.00;74.80;;;;;;5034327;28;20386;-63
2021/10/31 07:53:23;;;;;;;18.00;14.55;;;13.00;74.80;;;;;;5034911;28;20029;-63
2021/10/31 07:55:52;;;;;;;20.15;16.23;;;13.10;73.90;;;;;;5022006;28;20036;-63
2021/10/31 07:58:20;;;;;;;18.08;15.10;;;13.20;73.60;;;;;;5040382;28;20129;-63
2021/10/31 08:00:46;;;;;;;19.08;14.73;;;13.30;73.10;;;;;;5038935;28;20387;-63
2021/10/31 08:03:18;;;;;;;18.75;15.75;;;13.30;71.60;;;;;;5034106;28;20033;-63
2021/10/31 08:05:44;;;;;;;17.35;14.95;;;13.30;72.60;;;;;;5034060;28;20076;-63
2021/10/31 08:08:11;;;;;;;17.10;15.30;;;13.20;72.50;;;;;;5033469;28;20025;-63
2021/10/31 08:10:37;;;;;;;16.98;14.73;;;13.40;71.90;;;;;;5032840;28;20033;-63
2021/10/31 08:13:03;;;;;;;18.33;14.95;;;13.20;72.10;;;;;;5033380;28;20052;-63
2021/10/31 08:15:29;;;;;;;17.52;15.55;;;13.40;72.10;;;;;;5046390;28;20029;-62
2021/10/31 08:17:55;;;;;;;16.27;14.45;;;13.40;71.70;;;;;;5043971;28;20060;-63
2021/10/31 08:20:21;;;;;;;17.75;14.98;;;13.30;72.50;;;;;;5037874;28;20061;-62
2021/10/31 08:22:46;;;;;;;17.45;14.98;;;13.40;72.20;;;;;;5050514;28;20033;-61
2021/10/31 08:25:12;;;;;;;17.17;14.43;;;13.40;71.90;;;;;;5033435;28;20471;-63
2021/10/31 08:27:38;;;;;;;18.98;14.25;;;13.50;71.50;;;;;;5047732;28;20039;-62
2021/10/31 08:30:05;;;;;;;16.38;14.63;;;13.60;71.20;;;;;;5032588;28;20061;-62
2021/10/31 08:32:38;;;;;;;17.80;14.80;;;13.50;71.30;;;;;;5032701;28;20041;-62
2021/10/31 08:35:05;;;;;;;21.55;15.82;;;13.60;71.30;;;;;;5020903;28;20501;-62
2021/10/31 08:37:31;;;;;;;15.82;13.73;;;13.50;71.50;;;;;;5034135;28;20064;-61
2021/10/31 08:39:56;;;;;;;18.40;15.38;;;13.30;72.20;;;;;;5034841;28;20107;-62
2021/10/31 08:42:22;;;;;;;15.18;13.00;;;13.40;72.60;;;;;;5034146;28;20052;-62
2021/10/31 08:44:48;;;;;;;17.73;14.30;;;13.40;71.80;;;;;;5033474;28;20479;-62
2021/10/31 08:47:13;;;;;;;17.67;15.27;;;13.20;71.90;;;;;;5034427;28;20496;-62
2021/10/31 08:49:42;;;;;;;17.48;14.40;;;13.50;72.30;;;;;;5031615;28;20068;-63
2021/10/31 08:52:08;;;;;;;17.60;14.93;;;13.50;71.40;;;;;;5035939;28;20184;-62
2021/10/31 08:54:37;;;;;;;16.23;13.63;;;13.60;71.70;;;;;;5032168;28;20434;-62
2021/10/31 08:57:04;;;;;;;17.92;13.73;;;13.70;70.70;;;;;;5032320;28;20064;-62
2021/10/31 08:59:30;;;;;;;17.13;14.80;;;13.80;70.60;;;;;;5031752;28;20036;-63
2021/10/31 09:01:56;;;;;;;18.00;15.20;;;13.80;70.20;;;;;;5032181;28;20033;-62
2021/10/31 09:04:21;;;;;;;19.55;14.43;;;13.60;70.70;;;;;;5033669;28;20112;-63
2021/10/31 09:06:47;;;;;;;16.80;14.98;;;13.60;70.60;;;;;;5031524;28;20479;-62
2021/10/31 09:09:13;;;;;;;19.42;15.10;;;13.80;70.50;;;;;;5034044;28;20037;-62
2021/10/31 09:11:39;;;;;;;18.65;15.68;;;14.00;70.10;;;;;;5023298;28;20060;-62
2021/10/31 09:14:04;;;;;;;21.38;15.07;;;14.10;69.60;;;;;;5024872;28;20391;-62
2021/10/31 09:16:30;;;;;;;17.58;14.52;;;14.00;69.20;;;;;;5032836;28;20097;-62
2021/10/31 09:18:56;;;;;;;16.55;14.52;;;13.80;69.80;;;;;;5033462;28;20029;-62
2021/10/31 09:21:23;;;;;;;19.67;14.57;;;13.80;69.30;;;;;;5031933;28;20496;-62
2021/10/31 09:23:49;;;;;;;16.15;14.48;;;14.00;68.80;;;;;;5034001;28;20037;-62
2021/10/31 09:26:15;;;;;;;17.27;14.35;;;14.00;69.00;;;;;;5045381;28;20036;-62
2021/10/31 09:28:41;;;;;;;15.85;14.13;;;14.10;69.00;;;;;;5038025;28;20040;-62
2021/10/31 09:31:07;;;;;;;15.20;13.60;;;14.20;67.50;;;;;;5034007;28;20036;-62
2021/10/31 09:33:35;;;;;;;16.17;13.68;;;14.20;67.30;;;;;;5024470;28;20033;-62
2021/10/31 09:36:00;;;;;;;15.93;13.95;;;14.20;67.30;;;;;;5025138;28;20132;-62
2021/10/31 09:38:28;;;;;;;16.70;13.63;;;14.40;67.00;;;;;;5034323;28;20132;-62
2021/10/31 09:40:55;;;;;;;18.27;15.50;;;14.40;67.60;;;;;;5034863;28;20021;-62
2021/10/31 09:43:23;;;;;;;15.85;14.15;;;14.50;67.40;;;;;;5015450;28;20038;-62
2021/10/31 09:45:49;;;;;;;19.17;14.65;;;14.60;67.40;;;;;;5030927;28;20467;-62
2021/10/31 09:48:16;;;;;;;16.65;14.13;;;14.60;67.20;;;;;;5033437;28;20056;-62
2021/10/31 09:50:48;;;;;;;15.65;13.40;;;14.80;66.20;;;;;;5031732;28;20018;-62
2021/10/31 09:53:19;;;;;;;16.92;13.95;;;14.70;66.60;;;;;;5031060;28;20026;-62
2021/10/31 09:55:47;;;;;;;14.07;12.57;;;14.70;66.70;;;;;;5040002;28;20043;-62
2021/10/31 10:04:35;;;;;;;14.77;13.18;;;14.70;65.80;;;;;;5009567;28;20049;-62
2021/10/31 10:07:04;;;;;;;13.82;12.43;;;14.90;64.60;;;;;;4992011;28;20029;-62
2021/10/31 10:09:30;;;;;;;14.85;13.23;;;14.80;66.20;;;;;;5024000;28;20431;-62
2021/10/31 10:11:58;;;;;;;13.32;11.93;;;14.70;65.70;;;;;;5049100;28;20033;-62
2021/10/31 10:14:31;;;;;;;17.77;13.20;;;14.40;66.60;;;;;;5052731;28;20025;-62
2021/10/31 10:16:57;;;;;;;14.57;12.90;;;14.20;67.30;;;;;;5032741;28;20037;-62
2021/10/31 10:19:35;;;;;;;15.20;12.65;;;14.30;67.80;;;;;;5032618;28;20425;-62
2021/10/31 10:22:03;;;;;;;15.25;12.85;;;14.30;67.40;;;;;;5026649;28;20427;-62
2021/10/31 10:24:35;;;;;;;14.15;12.65;;;14.20;68.10;;;;;;5033313;28;20033;-62
2021/10/31 10:27:04;;;;;;;14.52;12.73;;;14.30;68.50;;;;;;5035808;28;20022;-62
2021/10/31 10:29:35;;;;;;;15.18;13.52;;;14.30;68.10;;;;;;5034845;28;20514;-62
2021/10/31 10:32:04;;;;;;;13.90;12.50;;;14.40;67.50;;;;;;5031561;28;20387;-62
2021/10/31 10:34:43;;;;;;;14.02;12.60;;;14.30;68.20;;;;;;5040995;28;20037;-62
2021/10/31 10:37:17;;;;;;;13.95;12.52;;;14.50;68.00;;;;;;5037457;28;20037;-62
2021/10/31 10:39:46;;;;;;;13.70;11.93;;;14.40;67.60;;;;;;5035245;28;20037;-62
2021/10/31 10:42:23;;;;;;;15.05;13.43;;;14.50;67.70;;;;;;5054361;28;20436;-62
2021/10/31 10:44:49;;;;;;;15.20;13.00;;;14.60;67.20;;;;;;5051528;28;20112;-62
2021/10/31 10:47:19;;;;;;;14.82;13.02;;;14.60;67.50;;;;;;5035576;28;20060;-63
2021/10/31 10:49:46;;;;;;;13.85;12.25;;;14.60;66.70;;;;;;5036240;28;20076;-64
2021/10/31 10:52:27;;;;;;;13.70;12.25;;;14.70;66.80;;;;;;5034987;28;20049;-62
2021/10/31 10:54:59;;;;;;;13.27;11.82;;;14.40;67.80;;;;;;5034878;28;20072;-62
2021/10/31 10:57:28;;;;;;;14.05;12.05;;;14.60;67.70;;;;;;5055867;28;20025;-62
2021/10/31 11:00:18;;;;;;;14.32;12.82;;;14.50;68.30;;;;;;5036062;28;20125;-62
2021/10/31 11:03:08;;;;;;;13.75;11.45;;;14.60;66.90;;;;;;5028370;28;20057;-62
2021/10/31 11:05:37;;;;;;;15.60;12.13;;;14.70;67.10;;;;;;5033883;28;20475;-62
2021/10/31 11:08:09;;;;;;;14.73;12.13;;;14.80;67.00;;;;;;5035684;28;20025;-62
2021/10/31 11:10:35;;;;;;;13.75;12.35;;;14.80;65.40;;;;;;5033612;28;20021;-62
2021/10/31 11:13:05;;;;;;;14.13;12.52;;;14.60;67.10;;;;;;5036229;28;20041;-62
2021/10/31 11:15:32;;;;;;;12.73;11.45;;;14.70;66.90;;;;;;5034853;28;20017;-62
2021/10/31 11:18:01;;;;;;;13.82;11.70;;;14.70;66.10;;;;;;5024428;28;20045;-62
2021/10/31 11:20:29;;;;;;;15.40;12.63;;;14.60;65.80;;;;;;5035538;28;20561;-62
2021/10/31 11:22:58;;;;;;;14.48;13.07;;;14.40;67.30;;;;;;5051261;28;20072;-62
2021/10/31 11:25:27;;;;;;;13.60;12.00;;;14.40;67.10;;;;;;5034644;28;20022;-62
2021/10/31 11:27:55;;;;;;;13.60;11.43;;;14.40;67.60;;;;;;5045732;28;20061;-67
2021/10/31 11:30:23;;;;;;;13.75;12.35;;;14.50;67.60;;;;;;5035394;28;20467;-64
2021/10/31 11:32:50;;;;;;;14.48;13.00;;;14.50;67.40;;;;;;5049390;28;20044;-62
2021/10/31 11:35:19;;;;;;;13.95;12.55;;;14.70;67.00;;;;;;5030348;28;20057;-63
2021/10/31 11:37:55;;;;;;;14.70;13.15;;;14.80;66.00;;;;;;5033523;28;20048;-63
2021/10/31 11:40:34;;;;;;;15.35;13.52;;;14.80;65.50;;;;;;5035505;28;20074;-63
2021/10/31 11:43:02;;;;;;;15.23;13.05;;;14.80;66.10;;;;;;5033160;28;20152;-65
2021/10/31 11:45:36;;;;;;;15.70;13.10;;;14.80;66.80;;;;;;5035207;28;20030;-64
2021/10/31 11:48:14;;;;;;;14.07;12.57;;;15.00;64.90;;;;;;5035205;28;20048;-63
2021/10/31 11:50:43;;;;;;;15.90;13.60;;;15.20;65.70;;;;;;5035180;28;20042;-61
2021/10/31 11:53:18;;;;;;;13.48;12.10;;;15.20;64.80;;;;;;5034846;28;20039;-63
2021/10/31 11:55:51;;;;;;;;;;;15.30;63.70;;;;;;5035778;28;20040;-64
2021/10/31 11:58:24;;;;;;;13.82;12.43;;;15.10;64.00;;;;;;5032243;28;19954;-64
2021/10/31 12:00:56;;;;;;;14.05;12.55;;;15.10;64.50;;;;;;5035461;28;20041;-64
2021/10/31 12:03:53;;;;;;;12.75;11.38;;;15.00;65.10;;;;;;5031930;28;20033;-64
2021/10/31 12:06:21;;;;;;;14.02;12.30;;;15.10;64.70;;;;;;5037541;28;20055;-64
2021/10/31 12:08:48;;;;;;;15.20;12.15;;;15.00;65.20;;;;;;5035097;28;20030;-64
2021/10/31 12:11:14;;;;;;;14.75;12.15;;;14.90;65.20;;;;;;5033978;28;20020;-64
2021/10/31 12:13:43;;;;;;;13.73;12.20;;;15.00;64.90;;;;;;5034859;28;20021;-64
2021/10/31 12:16:55;;;;;;;14.45;12.95;;;15.00;63.70;;;;;;5034014;28;20029;-64
2021/10/31 12:19:37;;;;;;;14.82;13.30;;;15.00;63.90;;;;;;5041991;28;20033;-64
2021/10/31 12:22:21;;;;;;;15.48;13.73;;;15.10;63.80;;;;;;5037599;28;20505;-64
2021/10/31 12:25:00;;;;;;;14.90;13.32;;;15.10;64.00;;;;;;5032044;28;20025;-64
2021/10/31 12:27:39;;;;;;;17.58;13.38;;;15.10;62.70;;;;;;5031631;28;20033;-63
2021/10/31 12:30:30;;;;;;;24.35;18.92;;;14.90;64.40;;;;;;5034670;28;20083;-63
2021/10/31 12:33:04;;;;;;;15.93;14.10;;;14.80;64.20;;;;;;5035568;28;20038;-63
2021/10/31 12:35:36;;;;;;;15.05;13.13;;;14.70;66.00;;;;;;5030159;28;20096;-63
2021/10/31 12:38:16;;;;;;;16.77;13.25;;;14.80;65.00;;;;;;5043424;28;20121;-63
2021/10/31 12:41:17;;;;;;;16.10;13.40;;;14.70;64.70;;;;;;5034163;28;20033;-62
2021/10/31 12:43:45;;;;;;;15.55;13.50;;;14.70;66.00;;;;;;5040379;28;20045;-62
2021/10/31 12:46:16;;;;;;;15.30;13.70;;;14.70;65.70;;;;;;5033584;28;20021;-62
2021/10/31 12:48:42;;;;;;;14.10;12.60;;;14.70;66.30;;;;;;5033254;28;20395;-62
2021/10/31 12:51:27;;;;;;;14.18;12.68;;;14.70;66.60;;;;;;5034117;28;20024;-62
2021/10/31 12:53:58;;;;;;;12.23;10.93;;;14.40;68.20;;;;;;5047406;28;20494;-62
2021/10/31 12:56:28;;;;;;;12.98;11.52;;;14.40;67.70;;;;;;5053949;28;20037;-62